Sacul, Texas
Current Conditions -  °F | °C
As of 11:55 AM on Saturday 20 Dec 2014 (Local Time) from KJSO Reporting Station
Overcast Overcast  
Wind Chill:   Ceiling: 600
Heat Index:   Visibility: 7mi
Dew Point:   Wind: 5mph
Humidity: 91%   Direction: 50°NE
Pressure: 30.25"   Gusts: NA
Location:  31.82°N, 94.92°W
Report Text: KJSO 201755Z AUTO 05004KT 7SM OVC006 08/07 A3025 RMK AO2 T00850071
Loading
Personal Weather Stations






























Interactive Weather Map New forecast layout! Learn more

10-Day Weather Forecast

Advertisements
Track Severe Weather on mobile